Terminal Aerodrome Forecast
Issued by NWS Wilmington, NC

Current Version | Previous Version | Graphics & Text | Print | Product List | Glossary Off
Versions: 1 2 3 4 5 6 7 8 9 10 11 12 13 14 15 16 17 18 19 20

000
FTUS42 KILM 292300
TAFLBT
TAF
KLBT 292320Z 3000/3024 04006KT P6SM SCT045 SCT090=

USA.gov is the U.S. government's official web portal to all federal, state and local government web resources and services.